Time;durP1;ratioP1;P1;durP2;ratioP2;P2;SDS_P1;SDS_P2;PMS_P1;PMS_P2;Temp;Humidity;BMP_temperature;BMP_pressure;BME280_temperature;BME280_humidity;BME280_pressure;Samples;Min_cycle;Max_cycle;Signal;HPM_P1;HPM_P2
2022/02/07 00:00:43;;;;;;;17.20;2.33;;;3.10;99.90;;;;;;5130538;27;20119;-81
2022/02/07 00:03:32;;;;;;;20.77;2.45;;;3.80;99.90;;;;;;5092779;27;20043;-82
2022/02/07 00:05:58;;;;;;;21.38;2.85;;;3.30;99.90;;;;;;5109871;27;20045;-82
2022/02/07 00:08:24;;;;;;;19.50;1.85;;;3.50;99.90;;;;;;5107617;27;20031;-82
2022/02/07 00:10:50;;;;;;;18.67;2.20;;;4.50;99.90;;;;;;5112155;27;20041;-82
2022/02/07 00:13:15;;;;;;;26.75;2.60;;;4.10;99.90;;;;;;5127606;27;20040;-82
2022/02/07 00:15:41;;;;;;;21.92;2.10;;;3.80;99.90;;;;;;5124451;27;20043;-84
2022/02/07 00:18:11;;;;;;;21.95;2.47;;;4.40;99.90;;;;;;5109312;27;20171;-82
2022/02/07 00:20:36;;;;;;;15.85;2.13;;;4.60;99.90;;;;;;5120750;27;20027;-82
2022/02/07 00:23:03;;;;;;;14.63;1.88;;;4.80;99.90;;;;;;5103270;27;20037;-82
2022/02/07 00:25:29;;;;;;;20.98;2.47;;;5.00;99.90;;;;;;5110990;27;20074;-82
2022/02/07 00:27:55;;;;;;;20.13;2.75;;;4.00;99.90;;;;;;5108526;27;20061;-82
2022/02/07 00:30:22;;;;;;;11.70;2.00;;;4.10;99.90;;;;;;5110832;27;20165;-82
2022/02/07 00:32:49;;;;;;;18.90;2.70;;;5.20;99.90;;;;;;5111839;27;20091;-82
2022/02/07 00:35:18;;;;;;;23.08;2.53;;;4.50;99.90;;;;;;5108271;27;20076;-81
2022/02/07 00:37:45;;;;;;;26.60;2.65;;;4.10;99.90;;;;;;5128409;27;20039;-81
2022/02/07 00:42:51;;;;;;;21.70;2.67;;;5.00;99.90;;;;;;5101126;28;20055;-82
2022/02/07 00:45:26;;;;;;;15.77;2.00;;;4.20;99.90;;;;;;5105650;27;20131;-82
2022/02/07 00:48:00;;;;;;;14.45;1.77;;;4.40;99.90;;;;;;5105793;27;20035;-82
2022/02/07 00:50:26;;;;;;;19.70;2.17;;;5.50;99.90;;;;;;5129641;27;20087;-82
2022/02/07 00:52:53;;;;;;;16.55;2.50;;;4.60;99.90;;;;;;5135659;27;20054;-82
2022/02/07 00:55:19;;;;;;;19.88;2.45;;;5.60;99.90;;;;;;5095905;28;20617;-82
2022/02/07 00:57:45;;;;;;;16.88;2.22;;;4.60;99.90;;;;;;5085089;28;20076;-82
2022/02/07 01:00:12;;;;;;;15.95;1.75;;;3.90;99.90;;;;;;5084600;28;20045;-82
2022/02/07 01:02:43;;;;;;;17.40;2.10;;;4.80;99.90;;;;;;5071302;28;20028;-83
2022/02/07 01:05:23;;;;;;;23.08;2.53;;;5.80;99.90;;;;;;5062051;28;20055;-83
2022/02/07 01:07:51;;;;;;;16.40;3.00;;;3.80;99.90;;;;;;5084865;28;20050;-82
2022/02/07 01:10:23;;;;;;;16.00;2.17;;;4.50;99.90;;;;;;5069914;28;20477;-83
2022/02/07 01:15:44;;;;;;;22.63;2.22;;;5.80;99.90;;;;;;5085582;28;20054;-83
2022/02/07 01:54:21;;;;;;;23.17;2.88;;;4.70;99.90;;;;;;4962852;28;20411;-83
2022/02/07 01:56:46;;;;;;;18.95;2.80;;;4.70;99.90;;;;;;4995531;28;20537;-83
2022/02/07 01:59:12;;;;;;;18.55;2.47;;;4.90;99.90;;;;;;4995560;28;20053;-82
2022/02/07 02:01:38;;;;;;;16.42;2.40;;;4.90;99.90;;;;;;4982161;28;20049;-83
2022/02/07 02:04:07;;;;;;;18.50;2.42;;;5.40;99.90;;;;;;4992619;28;20192;-82
2022/02/07 02:06:34;;;;;;;22.38;2.60;;;5.90;99.90;;;;;;4993575;28;20053;-82
2022/02/07 02:09:02;;;;;;;21.40;2.88;;;5.00;99.90;;;;;;4992245;28;20076;-82
2022/02/07 02:11:27;;;;;;;26.63;3.40;;;5.00;99.90;;;;;;4975672;28;20116;-83
2022/02/07 02:47:51;;;;;;;34.05;2.83;;;4.80;99.90;;;;;;5088448;28;20282;-82
2022/02/07 02:50:28;;;;;;;29.33;3.05;;;5.80;99.90;;;;;;5088074;28;20032;-82
2022/02/07 02:52:56;;;;;;;22.85;3.42;;;4.80;99.90;;;;;;5059785;28;20043;-82
2022/02/07 02:55:22;;;;;;;21.67;2.67;;;5.90;99.90;;;;;;5085771;28;20052;-83
2022/02/07 02:57:47;;;;;;;30.80;4.00;;;4.90;99.90;;;;;;5081644;28;20478;-83
2022/02/07 03:00:13;;;;;;;23.77;3.47;;;5.90;99.90;;;;;;5085005;28;20040;-80
2022/02/07 03:02:39;;;;;;;31.08;3.58;;;5.00;99.90;;;;;;5083720;28;20428;-82
2022/02/07 03:05:05;;;;;;;23.92;3.13;;;4.90;99.90;;;;;;5079998;28;20071;-82
2022/02/07 03:07:36;;;;;;;18.20;2.47;;;5.00;99.90;;;;;;5088446;28;20070;-83
2022/02/07 03:10:11;;;;;;;24.23;2.80;;;6.20;99.90;;;;;;5082800;28;20126;-81
2022/02/07 03:12:58;;;;;;;18.00;2.13;;;5.00;99.90;;;;;;5101364;28;20141;-82
2022/02/07 03:18:37;;;;;;;28.23;3.40;;;4.80;99.90;;;;;;5102035;28;20183;-82
2022/02/07 03:21:04;;;;;;;25.08;2.83;;;5.90;99.90;;;;;;4994665;28;20081;-82
2022/02/07 03:23:31;;;;;;;22.50;2.22;;;6.10;99.90;;;;;;5010228;28;20072;-82
2022/02/07 03:26:14;;;;;;;30.48;2.90;;;4.70;99.90;;;;;;5010738;28;20041;-82
2022/02/07 03:28:43;;;;;;;22.17;2.08;;;5.80;99.90;;;;;;4994163;28;20040;-82
2022/02/07 03:31:09;;;;;;;14.02;2.55;;;5.70;99.90;;;;;;5005836;28;20038;-82
2022/02/07 03:33:36;;;;;;;22.02;3.00;;;5.70;99.90;;;;;;4991017;28;20037;-81
2022/02/07 03:36:02;;;;;;;24.88;2.63;;;4.50;99.90;;;;;;5013935;28;20469;-82
2022/02/07 03:38:30;;;;;;;22.95;2.95;;;4.50;99.90;;;;;;5011141;28;20046;-82
2022/02/07 03:40:55;;;;;;;24.92;2.97;;;4.50;99.90;;;;;;4995540;28;20041;-82
2022/02/07 03:43:22;;;;;;;19.58;2.50;;;4.50;99.90;;;;;;4995279;28;20042;-82
2022/02/07 03:45:48;;;;;;;20.33;3.00;;;5.40;99.90;;;;;;5028174;28;20026;-82
2022/02/07 03:48:17;;;;;;;24.55;2.85;;;5.50;99.90;;;;;;5012308;28;20458;-81
2022/02/07 03:50:43;;;;;;;30.20;3.13;;;5.20;99.90;;;;;;5011210;28;20057;-82
2022/02/07 03:53:09;;;;;;;30.27;3.42;;;4.60;99.90;;;;;;5013244;28;20430;-82
2022/02/07 03:55:35;;;;;;;32.00;3.90;;;4.60;99.90;;;;;;4984558;28;20055;-82
2022/02/07 03:58:01;;;;;;;21.33;3.05;;;4.70;99.90;;;;;;5049720;28;20032;-82
2022/02/07 04:00:27;;;;;;;31.70;3.67;;;5.80;99.90;;;;;;5085956;28;20112;-82
2022/02/07 04:02:58;;;;;;;27.73;4.03;;;4.20;99.90;;;;;;5080330;28;20044;-82
2022/02/07 04:07:50;;;;;;;28.02;4.05;;;5.10;99.90;;;;;;5088918;28;20679;-83
2022/02/07 04:10:16;;;;;;;31.23;4.35;;;5.40;99.90;;;;;;5089080;28;20035;-83
2022/02/07 04:12:49;;;;;;;31.52;4.15;;;6.10;99.90;;;;;;5086005;28;20040;-82
2022/02/07 04:15:17;;;;;;;31.48;3.85;;;6.30;99.90;;;;;;5092490;28;20097;-82
2022/02/07 04:17:48;;;;;;;31.00;3.08;;;6.50;99.90;;;;;;5089030;28;20059;-82
2022/02/07 04:20:15;;;;;;;39.88;4.90;;;6.30;99.90;;;;;;5083315;28;20036;-82
2022/02/07 04:22:54;;;;;;;15.52;2.35;;;5.50;99.90;;;;;;5091555;28;20133;-84
2022/02/07 04:25:20;;;;;;;9.38;1.63;;;6.60;99.90;;;;;;5104061;28;20055;-83
2022/02/07 04:27:46;;;;;;;20.73;2.10;;;5.20;99.90;;;;;;5086181;28;20032;-83
2022/02/07 04:30:12;;;;;;;22.17;2.47;;;5.10;99.90;;;;;;5087808;28;20133;-84
2022/02/07 04:32:38;;;;;;;16.48;2.28;;;5.30;99.90;;;;;;5089168;28;20052;-84
2022/02/07 04:35:04;;;;;;;20.85;2.40;;;6.10;99.90;;;;;;5071110;28;20047;-83
2022/02/07 04:37:30;;;;;;;17.30;2.58;;;5.00;99.90;;;;;;5086635;28;20050;-83
2022/02/07 04:39:56;;;;;;;23.95;3.80;;;5.60;99.90;;;;;;5076977;28;20033;-84
2022/02/07 04:45:55;;;;;;;29.30;2.75;;;5.10;99.90;;;;;;5087111;28;20044;-85
2022/02/07 04:54:05;;;;;;;23.02;3.30;;;6.10;99.90;;;;;;5080151;28;20119;-84
2022/02/07 04:59:20;;;;;;;34.25;3.60;;;6.50;99.90;;;;;;5128970;27;20046;-85
2022/02/07 05:01:56;;;;;;;31.25;3.78;;;5.50;99.90;;;;;;5088777;27;20047;-83
2022/02/07 05:04:36;;;;;;;35.88;4.60;;;5.40;99.90;;;;;;5088319;27;20085;-83
2022/02/07 05:15:15;;;;;;;21.10;3.00;;;5.50;99.90;;;;;;5132622;27;20042;-83
2022/02/07 05:17:41;;;;;;;23.08;3.63;;;6.20;99.90;;;;;;5095325;27;20119;-83
2022/02/07 05:20:08;;;;;;;22.58;2.30;;;5.50;99.90;;;;;;5109781;27;20439;-82
2022/02/07 05:22:34;;;;;;;13.57;2.75;;;5.50;99.90;;;;;;5130409;27;20078;-83
2022/02/07 05:25:00;;;;;;;26.20;2.63;;;5.40;99.90;;;;;;5094099;27;20062;-84
2022/02/07 05:27:26;;;;;;;18.63;2.30;;;5.30;99.90;;;;;;5092608;27;20390;-84
2022/02/07 05:30:11;;;;;;;19.08;1.95;;;6.00;99.90;;;;;;5085176;28;20513;-85
2022/02/07 05:32:37;;;;;;;18.58;3.05;;;5.10;99.90;;;;;;5084071;28;20087;-82
2022/02/07 05:35:04;;;;;;;24.27;2.78;;;5.00;99.90;;;;;;5100485;27;20074;-84
2022/02/07 05:37:31;;;;;;;22.80;2.60;;;4.90;99.90;;;;;;5068826;28;20152;-83
2022/02/07 05:40:05;;;;;;;20.25;2.42;;;4.90;99.90;;;;;;5079888;28;20118;-82
2022/02/07 05:42:30;;;;;;;20.00;2.65;;;4.80;99.90;;;;;;5097818;28;20079;-83
2022/02/07 05:44:56;;;;;;;24.25;3.33;;;4.80;99.90;;;;;;5077434;28;20071;-84
2022/02/07 05:47:21;;;;;;;20.30;3.28;;;4.70;99.90;;;;;;5065697;28;20123;-83
2022/02/07 05:49:47;;;;;;;24.27;3.10;;;4.70;99.90;;;;;;5063949;28;20060;-81
2022/02/07 05:52:13;;;;;;;24.35;3.03;;;4.80;99.90;;;;;;5064839;28;20040;-81
2022/02/07 05:54:38;;;;;;;31.77;3.85;;;4.60;99.90;;;;;;5081086;28;20400;-81
2022/02/07 05:57:07;;;;;;;20.50;3.10;;;4.60;99.90;;;;;;5080645;28;20391;-81
2022/02/07 05:59:32;;;;;;;36.22;4.22;;;4.50;99.90;;;;;;5053487;28;20486;-82
2022/02/07 06:01:58;;;;;;;34.10;3.70;;;4.50;99.90;;;;;;5080467;28;20071;-81
2022/02/07 06:04:24;;;;;;;27.02;4.15;;;4.70;99.90;;;;;;5085992;28;20036;-81
2022/02/07 06:06:49;;;;;;;31.92;4.15;;;4.40;99.90;;;;;;5100299;27;20055;-81
2022/02/07 06:09:15;;;;;;;29.75;3.40;;;4.40;99.90;;;;;;5091085;27;20047;-81
2022/02/07 06:11:40;;;;;;;28.15;3.65;;;4.40;99.90;;;;;;5092439;27;21286;-81
2022/02/07 06:14:06;;;;;;;26.33;4.00;;;4.40;99.90;;;;;;5092379;27;20051;-81
2022/02/07 06:16:32;;;;;;;38.72;3.75;;;4.60;99.90;;;;;;5088544;27;20039;-81
2022/02/07 06:19:04;;;;;;;36.05;4.28;;;5.00;99.90;;;;;;5083946;27;20039;-83
2022/02/07 06:21:33;;;;;;;33.53;4.85;;;4.60;99.90;;;;;;5091207;27;20051;-82
2022/02/07 06:24:01;;;;;;;30.90;3.33;;;4.50;99.90;;;;;;5090772;27;20039;-82
2022/02/07 06:26:27;;;;;;;33.85;3.72;;;4.50;99.90;;;;;;5114230;27;20055;-79
2022/02/07 06:28:53;;;;;;;39.80;4.57;;;4.60;99.90;;;;;;5110647;27;20080;-84
2022/02/07 06:31:24;;;;;;;30.65;3.70;;;4.60;99.90;;;;;;5092543;27;20059;-84
2022/02/07 06:33:50;;;;;;;32.63;4.75;;;4.60;99.90;;;;;;5111281;27;20148;-81
2022/02/07 06:36:15;;;;;;;35.40;4.50;;;4.60;99.90;;;;;;5083175;27;20039;-80
2022/02/07 06:38:41;;;;;;;38.25;5.15;;;4.60;99.90;;;;;;5088017;27;20042;-80
2022/02/07 06:41:07;;;;;;;41.08;4.72;;;5.30;99.90;;;;;;5107896;27;20035;-80
2022/02/07 06:43:32;;;;;;;39.47;4.00;;;4.50;99.90;;;;;;5104824;27;20046;-80
2022/02/07 06:45:58;;;;;;;38.45;4.32;;;4.60;99.90;;;;;;5089625;28;20118;-81
2022/02/07 06:48:27;;;;;;;38.60;5.10;;;4.90;99.90;;;;;;5089684;27;20027;-82
2022/02/07 06:50:53;;;;;;;35.28;4.35;;;4.70;99.90;;;;;;5106820;28;20031;-82
2022/02/07 06:53:19;;;;;;;42.25;4.82;;;4.80;99.90;;;;;;5082148;27;20130;-81
2022/02/07 06:55:45;;;;;;;34.63;4.82;;;4.80;99.90;;;;;;5108885;27;20550;-82
2022/02/07 06:58:11;;;;;;;49.92;5.32;;;4.70;99.90;;;;;;5088430;28;20443;-81
2022/02/07 07:00:37;;;;;;;34.58;4.13;;;4.60;99.90;;;;;;5087094;27;20043;-81
2022/02/07 07:03:03;;;;;;;30.95;4.38;;;4.70;99.90;;;;;;5108278;27;20035;-82
2022/02/07 07:05:29;;;;;;;42.92;5.10;;;4.60;99.90;;;;;;5108830;27;20146;-82
2022/02/07 07:07:55;;;;;;;34.67;5.50;;;4.50;99.90;;;;;;5112491;27;20507;-81
2022/02/07 07:10:34;;;;;;;44.20;5.60;;;4.50;99.90;;;;;;5111804;27;20095;-82
2022/02/07 07:13:09;;;;;;;43.88;6.18;;;4.50;99.90;;;;;;5113745;27;20046;-82
2022/02/07 07:15:43;;;;;;;;;;;4.40;99.90;;;;;;5116454;27;20823;-82
2022/02/07 07:18:09;;;;;;;40.58;4.97;;;4.40;99.90;;;;;;5115266;27;19919;-82
2022/02/07 07:20:35;;;;;;;44.60;4.97;;;4.90;99.90;;;;;;5110945;27;20371;-81
2022/02/07 07:23:03;;;;;;;45.70;5.10;;;4.20;99.90;;;;;;5110934;27;20047;-81
2022/02/07 07:25:32;;;;;;;40.13;5.57;;;4.30;99.90;;;;;;5092239;27;20034;-82
2022/02/07 07:28:01;;;;;;;39.90;6.03;;;4.20;99.90;;;;;;5093211;27;20122;-82
2022/02/07 07:30:33;;;;;;;39.92;5.88;;;4.20;99.90;;;;;;5117535;27;20449;-82
2022/02/07 07:33:06;;;;;;;42.95;5.05;;;4.40;99.90;;;;;;5115241;27;20051;-81
2022/02/07 07:35:31;;;;;;;53.22;6.70;;;4.30;99.90;;;;;;5110380;27;20084;-82
2022/02/07 07:37:57;;;;;;;51.45;6.03;;;4.20;99.90;;;;;;5108426;27;20060;-82
2022/02/07 07:40:23;;;;;;;39.05;4.47;;;4.20;99.90;;;;;;5106283;27;20421;-82
2022/02/07 07:42:53;;;;;;;48.38;5.93;;;4.10;99.90;;;;;;5089222;27;20108;-81
2022/02/07 07:45:23;;;;;;;46.25;5.97;;;4.20;99.90;;;;;;5093031;27;20054;-82
2022/02/07 07:47:57;;;;;;;39.38;4.93;;;4.10;99.90;;;;;;5110231;27;20050;-81
2022/02/07 07:50:29;;;;;;;46.83;6.65;;;4.50;99.90;;;;;;5110805;27;20483;-80
2022/02/07 08:03:16;;;;;;;35.72;4.20;;;5.50;99.90;;;;;;5113941;28;20043;-80
2022/02/07 08:05:46;;;;;;;42.05;5.72;;;5.20;99.90;;;;;;5112064;28;20052;-81
2022/02/07 08:08:26;;;;;;;42.15;4.68;;;4.60;99.90;;;;;;5095947;28;20047;-81
2022/02/07 08:13:28;;;;;;;46.97;5.55;;;4.60;99.90;;;;;;5114499;28;20040;-81
2022/02/07 08:15:53;;;;;;;41.05;4.82;;;4.60;99.90;;;;;;5098925;28;20035;-80
2022/02/07 08:18:19;;;;;;;54.13;5.78;;;4.60;99.90;;;;;;5115469;28;20058;-81
2022/02/07 08:20:45;;;;;;;46.15;5.63;;;4.70;99.90;;;;;;5098745;28;20054;-82
2022/02/07 08:23:14;;;;;;;44.45;5.25;;;4.80;99.90;;;;;;5117297;28;20043;-82
2022/02/07 08:25:39;;;;;;;47.55;5.13;;;4.80;99.90;;;;;;5067016;28;20060;-83
2022/02/07 08:28:06;;;;;;;38.30;6.00;;;4.80;99.90;;;;;;5047333;28;20055;-80
2022/02/07 08:30:33;;;;;;;44.53;5.22;;;4.80;99.90;;;;;;5048631;28;20052;-80
2022/02/07 08:33:00;;;;;;;40.80;4.63;;;4.90;99.90;;;;;;5032814;28;20481;-81
2022/02/07 08:35:26;;;;;;;54.17;6.10;;;4.90;99.90;;;;;;5052899;28;20048;-82
2022/02/07 08:37:52;;;;;;;54.60;6.25;;;4.90;99.90;;;;;;5050149;28;20313;-81
2022/02/07 08:40:19;;;;;;;41.22;5.43;;;4.90;99.90;;;;;;5065009;28;20078;-81
2022/02/07 08:42:45;;;;;;;29.85;4.82;;;5.00;99.90;;;;;;5048558;28;20119;-79
2022/02/07 08:45:12;;;;;;;50.67;5.72;;;5.50;99.90;;;;;;5045880;28;20056;-80
2022/02/07 08:47:39;;;;;;;54.90;5.07;;;5.10;99.90;;;;;;5046211;28;20135;-82
2022/02/07 08:50:06;;;;;;;48.35;5.47;;;5.10;99.90;;;;;;5027601;28;20055;-82
2022/02/07 08:52:32;;;;;;;41.97;5.43;;;5.20;99.90;;;;;;5047392;28;20043;-83
2022/02/07 08:54:59;;;;;;;45.25;5.25;;;5.20;99.90;;;;;;5065781;28;20074;-84
2022/02/07 08:57:33;;;;;;;42.92;5.65;;;5.30;99.90;;;;;;5094506;27;20457;-78
2022/02/07 09:07:35;;;;;;;38.33;4.97;;;5.50;99.90;;;;;;5105985;27;20046;-79
2022/02/07 09:10:01;;;;;;;40.17;4.78;;;5.50;99.90;;;;;;5115611;27;20047;-80
2022/02/07 09:12:27;;;;;;;40.50;4.45;;;5.50;99.90;;;;;;5088426;27;20490;-82
2022/02/07 09:15:06;;;;;;;38.03;5.30;;;5.60;99.90;;;;;;5108305;27;20031;-83
2022/02/07 09:17:35;;;;;;;32.42;5.18;;;5.70;99.90;;;;;;5089239;27;20482;-79
2022/02/07 09:20:00;;;;;;;20.52;3.00;;;5.70;99.90;;;;;;5111094;27;20039;-82
2022/02/07 09:22:26;;;;;;;29.73;4.10;;;5.80;99.90;;;;;;5108322;27;20042;-82
2022/02/07 09:24:52;;;;;;;34.35;3.97;;;6.00;99.90;;;;;;5109433;27;20069;-81
2022/02/07 09:27:17;;;;;;;36.70;5.28;;;5.90;99.90;;;;;;5101023;27;20038;-77
2022/02/07 09:29:43;;;;;;;37.13;4.97;;;6.00;99.90;;;;;;5105354;27;20039;-79
2022/02/07 09:32:08;;;;;;;47.33;5.20;;;6.00;99.90;;;;;;5129538;27;20063;-78
2022/02/07 09:34:34;;;;;;;41.25;4.40;;;6.10;99.90;;;;;;5085081;27;20537;-78
2022/02/07 09:37:00;;;;;;;40.95;4.10;;;6.20;99.90;;;;;;5102388;27;20196;-79
2022/02/07 09:39:33;;;;;;;30.85;4.07;;;6.30;99.90;;;;;;5109718;27;20051;-82
2022/02/07 09:42:00;;;;;;;42.97;5.43;;;6.30;99.90;;;;;;5108718;27;20071;-83
2022/02/07 09:44:29;;;;;;;35.42;4.78;;;7.40;99.90;;;;;;5094404;27;20125;-82
2022/02/07 09:47:00;;;;;;;34.47;4.95;;;6.40;99.90;;;;;;5097496;27;20043;-87
2022/02/07 09:49:26;;;;;;;26.20;3.45;;;7.10;99.90;;;;;;5106371;27;20039;-85
2022/02/07 09:51:53;;;;;;;41.47;4.60;;;7.30;99.90;;;;;;5085995;27;20126;-81
2022/02/07 09:54:32;;;;;;;29.20;4.47;;;6.60;99.90;;;;;;5106730;27;20099;-85
2022/02/07 09:56:58;;;;;;;32.80;5.45;;;7.50;99.90;;;;;;5114877;27;20088;-80
2022/02/07 10:00:04;;;;;;;43.40;5.40;;;6.60;99.90;;;;;;5097826;27;20386;-80
2022/02/07 10:02:50;;;;;;;30.75;3.83;;;6.60;99.90;;;;;;5096378;27;20047;-82
2022/02/07 10:05:24;;;;;;;32.97;4.20;;;7.30;99.90;;;;;;5111935;27;20054;-81
2022/02/07 10:08:12;;;;;;;42.77;4.83;;;6.70;99.90;;;;;;5097175;27;20046;-80
2022/02/07 10:14:14;;;;;;;30.00;3.90;;;6.80;99.90;;;;;;5032588;28;20148;-82
2022/02/07 10:17:02;;;;;;;39.15;5.25;;;6.30;99.90;;;;;;5033416;28;20053;-81
2022/02/07 10:38:19;;;;;;;26.35;4.20;;;7.10;99.90;;;;;;5027259;28;20115;-83
2022/02/07 10:44:08;;;;;;;26.60;3.97;;;7.30;99.90;;;;;;5010410;28;20048;-80
2022/02/07 10:46:36;;;;;;;41.60;4.63;;;7.30;99.90;;;;;;5010545;28;20164;-79
2022/02/07 10:49:08;;;;;;;33.72;4.22;;;7.50;99.90;;;;;;5014283;28;20056;-77
2022/02/07 10:51:36;;;;;;;34.80;4.65;;;7.50;99.90;;;;;;5046546;28;20494;-79
2022/02/07 10:54:12;;;;;;;35.00;4.85;;;7.60;99.90;;;;;;4997019;28;20053;-78
2022/02/07 10:56:45;;;;;;;32.58;3.90;;;7.60;99.90;;;;;;5056345;28;20099;-77
2022/02/07 10:59:17;;;;;;;29.00;4.65;;;7.60;99.90;;;;;;4999563;28;20143;-77
2022/02/07 11:09:08;;;;;;;25.27;3.20;;;7.30;99.90;;;;;;4928600;28;20043;-83
2022/02/07 11:20:57;;;;;;;35.63;4.63;;;7.80;99.90;;;;;;4961439;28;20039;-78
2022/02/07 11:23:45;;;;;;;32.30;4.55;;;8.30;99.90;;;;;;4930710;29;20448;-79
2022/02/07 11:26:49;;;;;;;29.60;3.55;;;8.70;99.90;;;;;;4931740;29;20134;-79
2022/02/07 11:30:07;;;;;;;39.10;4.60;;;8.20;99.90;;;;;;4904012;29;20484;-79
2022/02/07 11:33:28;;;;;;;29.48;3.40;;;7.90;99.90;;;;;;4914113;29;20052;-81
2022/02/07 11:36:04;;;;;;;21.05;3.40;;;7.60;99.90;;;;;;4903126;29;20052;-81
2022/02/07 11:39:05;;;;;;;30.52;3.75;;;7.80;99.90;;;;;;4912448;29;20150;-81
2022/02/07 11:42:25;;;;;;;35.60;4.53;;;7.90;99.90;;;;;;4859669;29;20057;-81
2022/02/07 11:45:40;;;;;;;35.42;3.92;;;7.60;99.90;;;;;;4884923;29;20489;-82
2022/02/07 11:48:37;;;;;;;19.33;3.63;;;8.10;99.90;;;;;;4911559;29;20151;-82
2022/02/07 11:51:20;;;;;;;23.30;3.65;;;8.20;99.90;;;;;;4912845;29;20070;-81
2022/02/07 11:53:59;;;;;;;22.05;4.10;;;7.50;99.90;;;;;;4881017;29;20166;-80
2022/02/07 11:59:18;;;;;;;24.75;4.25;;;7.90;99.90;;;;;;4885942;29;20055;-83
2022/02/07 12:01:57;;;;;;;20.27;3.17;;;7.50;99.90;;;;;;4908569;29;20135;-81
2022/02/07 12:04:24;;;;;;;23.10;3.10;;;8.00;99.90;;;;;;4895082;29;20056;-81
2022/02/07 12:07:20;;;;;;;25.85;3.40;;;8.10;99.90;;;;;;4878494;29;20059;-81
2022/02/07 12:10:46;;;;;;;19.30;3.05;;;8.10;99.90;;;;;;4862403;29;20139;-82
2022/02/07 12:13:42;;;;;;;27.10;3.67;;;8.80;99.90;;;;;;4980630;28;20047;-79
2022/02/07 12:16:24;;;;;;;31.70;4.72;;;8.10;99.90;;;;;;4969105;28;20465;-80
2022/02/07 12:19:33;;;;;;;23.20;3.42;;;9.20;99.90;;;;;;4989898;28;20238;-82
2022/02/07 12:22:15;;;;;;;27.15;3.78;;;7.80;99.90;;;;;;4984577;28;20049;-80
2022/02/07 12:25:11;;;;;;;24.83;3.35;;;8.40;99.90;;;;;;5018001;28;20115;-81
2022/02/07 12:27:44;;;;;;;26.10;3.65;;;8.30;99.90;;;;;;5034125;28;20102;-82
2022/02/07 12:30:17;;;;;;;15.00;2.72;;;8.70;99.90;;;;;;5050431;28;20060;-80
2022/02/07 12:32:51;;;;;;;20.55;3.10;;;8.30;99.90;;;;;;5050326;28;20057;-81
2022/02/07 12:35:35;;;;;;;24.50;3.65;;;8.10;99.90;;;;;;5041558;28;20377;-80
2022/02/07 12:38:01;;;;;;;25.80;3.95;;;8.10;99.90;;;;;;5042621;28;20033;-80
2022/02/07 12:40:27;;;;;;;26.70;4.40;;;8.30;99.90;;;;;;5052341;28;20039;-84
2022/02/07 12:42:55;;;;;;;26.45;2.95;;;8.20;99.90;;;;;;5043226;28;20064;-80
2022/02/07 12:45:26;;;;;;;27.42;3.05;;;8.10;99.90;;;;;;5036690;28;20540;-83
2022/02/07 12:47:56;;;;;;;34.25;4.97;;;8.20;99.90;;;;;;5075093;27;20090;-82
2022/02/07 12:50:23;;;;;;;29.05;3.10;;;8.10;99.90;;;;;;5101856;27;20055;-78
2022/02/07 12:52:53;;;;;;;36.47;4.30;;;8.20;99.90;;;;;;5094792;27;20133;-80
2022/02/07 12:55:20;;;;;;;23.83;3.20;;;8.40;99.90;;;;;;5111445;27;20040;-81
2022/02/07 12:57:49;;;;;;;28.17;3.40;;;8.00;99.90;;;;;;5118319;27;20039;-82
2022/02/07 13:00:20;;;;;;;20.88;3.53;;;8.20;99.90;;;;;;5093366;27;20039;-80
2022/02/07 13:02:48;;;;;;;22.67;3.40;;;8.10;99.90;;;;;;5098355;28;20649;-79
2022/02/07 13:05:29;;;;;;;24.40;3.67;;;9.30;99.90;;;;;;5113991;27;20035;-81
2022/02/07 13:08:02;;;;;;;22.23;3.83;;;8.40;99.90;;;;;;5096505;27;20063;-81
2022/02/07 13:10:41;;;;;;;29.77;3.33;;;8.30;99.90;;;;;;5083118;27;20151;-81
2022/02/07 13:13:39;;;;;;;21.75;3.45;;;8.30;99.90;;;;;;5104614;28;20055;-81
2022/02/07 13:16:05;;;;;;;24.65;3.47;;;8.70;99.90;;;;;;5113044;27;20039;-80
2022/02/07 13:18:37;;;;;;;29.40;3.55;;;8.50;99.90;;;;;;5112441;27;20045;-80
2022/02/07 13:21:12;;;;;;;28.25;3.80;;;9.30;99.90;;;;;;5094316;27;20047;-82
2022/02/07 13:23:42;;;;;;;20.75;2.97;;;8.80;99.90;;;;;;5132777;27;20046;-81
2022/02/07 13:26:57;;;;;;;23.00;2.95;;;8.70;99.90;;;;;;5112799;27;20039;-80
2022/02/07 13:30:03;;;;;;;24.98;4.13;;;8.60;99.90;;;;;;5009052;28;20448;-81
2022/02/07 13:32:31;;;;;;;34.33;3.55;;;8.70;99.90;;;;;;4975413;28;20277;-80
2022/02/07 13:35:07;;;;;;;21.30;2.90;;;8.60;99.90;;;;;;5008784;28;20255;-80
2022/02/07 13:37:36;;;;;;;21.88;3.67;;;8.80;99.90;;;;;;4989648;28;20046;-79
2022/02/07 13:40:04;;;;;;;15.82;2.75;;;9.30;99.90;;;;;;4986698;28;20042;-80
2022/02/07 13:42:36;;;;;;;19.70;2.60;;;8.70;99.90;;;;;;4980282;28;20057;-81
2022/02/07 13:45:04;;;;;;;15.77;2.45;;;8.70;99.90;;;;;;4990033;28;20592;-81
2022/02/07 13:47:30;;;;;;;27.48;3.28;;;8.70;99.90;;;;;;4995318;28;20503;-80
2022/02/07 13:50:04;;;;;;;22.70;3.05;;;8.50;99.90;;;;;;4988172;28;20053;-80
2022/02/07 13:52:33;;;;;;;21.30;2.67;;;8.10;99.90;;;;;;4976679;28;20053;-79
2022/02/07 13:55:20;;;;;;;16.40;2.95;;;8.20;99.90;;;;;;4991472;28;20281;-79
2022/02/07 13:57:54;;;;;;;19.70;3.05;;;8.20;99.90;;;;;;4999143;28;20129;-81
2022/02/07 14:00:27;;;;;;;25.33;3.33;;;7.90;99.90;;;;;;4994798;28;20056;-79
2022/02/07 14:03:32;;;;;;;19.25;2.65;;;7.80;99.90;;;;;;5031108;28;20120;-83
2022/02/07 14:06:33;;;;;;;20.95;2.72;;;7.80;99.90;;;;;;5014929;27;20122;-82
2022/02/07 14:24:35;;;;;;;25.25;3.63;;;7.00;99.90;;;;;;4989319;28;20038;-83
2022/02/07 14:27:24;;;;;;;18.65;2.83;;;7.20;99.90;;;;;;4873444;29;20469;-83
2022/02/07 14:30:01;;;;;;;22.20;2.80;;;7.70;99.90;;;;;;4875416;29;20075;-83
2022/02/07 14:32:31;;;;;;;23.98;3.50;;;7.50;99.90;;;;;;4861467;29;20052;-84
2022/02/07 14:38:56;;;;;;;24.35;2.75;;;7.30;99.90;;;;;;4771318;29;20425;-83
2022/02/07 15:36:27;;;;;;;20.90;2.50;;;6.60;99.90;;;;;;4254399;26;20038;-80
2022/02/07 15:39:03;;;;;;;16.70;1.65;;;6.50;99.90;;;;;;4999371;28;20125;-82
2022/02/07 15:41:29;;;;;;;15.73;2.15;;;6.50;99.90;;;;;;5013245;28;20111;-80
2022/02/07 15:44:00;;;;;;;23.52;2.72;;;6.50;99.90;;;;;;4995224;28;20038;-83
2022/02/07 15:46:30;;;;;;;20.20;2.85;;;6.50;99.90;;;;;;5011491;28;20428;-82
2022/02/07 15:49:13;;;;;;;15.40;2.65;;;6.50;99.90;;;;;;4978978;28;20042;-81
2022/02/07 15:52:06;;;;;;;17.27;2.20;;;7.10;99.90;;;;;;4995786;28;20477;-82
2022/02/07 15:55:09;;;;;;;;;;;;;;;;;;;;;
2022/02/07 16:02:01;;;;;;;19.40;2.60;;;6.30;99.90;;;;;;5010842;28;20118;-81
2022/02/07 16:04:59;;;;;;;14.32;1.98;;;6.30;99.90;;;;;;4921044;28;20062;-81
2022/02/07 16:07:25;;;;;;;17.67;2.75;;;7.00;99.90;;;;;;4946972;28;20044;-79
2022/02/07 16:09:51;;;;;;;18.10;2.38;;;7.30;99.90;;;;;;4937702;28;20039;-79
2022/02/07 16:12:18;;;;;;;18.15;2.33;;;6.20;99.90;;;;;;4955676;28;20042;-80
2022/02/07 16:14:45;;;;;;;22.73;2.72;;;6.10;99.90;;;;;;4940280;28;20117;-79
2022/02/07 16:17:12;;;;;;;13.70;1.92;;;6.10;99.90;;;;;;4955300;28;20047;-81
2022/02/07 16:19:41;;;;;;;15.07;2.17;;;6.10;99.90;;;;;;4955067;28;20038;-82
2022/02/07 16:22:08;;;;;;;22.98;2.45;;;6.60;99.90;;;;;;4939736;28;20410;-83
2022/02/07 16:24:37;;;;;;;27.25;2.65;;;6.00;99.90;;;;;;4971405;28;20053;-84
2022/02/07 16:27:11;;;;;;;13.52;2.50;;;6.20;99.90;;;;;;4954477;28;20051;-83
2022/02/07 16:29:42;;;;;;;21.60;3.17;;;6.00;99.90;;;;;;4942040;28;20066;-83
2022/02/07 16:32:08;;;;;;;21.00;2.63;;;6.10;99.90;;;;;;4960377;28;20905;-82
2022/02/07 16:34:51;;;;;;;25.95;3.13;;;5.80;99.90;;;;;;4942435;28;20039;-85
2022/02/07 16:37:16;;;;;;;21.30;2.47;;;6.80;99.90;;;;;;4954056;28;20167;-87
2022/02/07 16:39:48;;;;;;;18.45;2.40;;;6.80;99.90;;;;;;4945163;28;20075;-83
2022/02/07 16:48:28;;;;;;;25.65;2.17;;;6.70;99.90;;;;;;4980583;28;20053;-88
2022/02/07 16:50:54;;;;;;;22.65;2.47;;;6.40;99.90;;;;;;4961000;28;20042;-84
2022/02/07 16:53:23;;;;;;;20.52;2.63;;;5.70;99.90;;;;;;4965434;28;20577;-86
2022/02/07 16:55:54;;;;;;;23.35;2.42;;;6.30;99.90;;;;;;4969907;28;20049;-87
2022/02/07 16:58:20;;;;;;;23.83;2.30;;;5.50;99.90;;;;;;4959451;28;20038;-82
2022/02/07 17:01:12;;;;;;;27.83;3.05;;;5.70;99.90;;;;;;4973913;28;20058;-83
2022/02/07 17:03:41;;;;;;;22.10;2.58;;;5.50;99.90;;;;;;4960137;28;20057;-83
2022/02/07 17:06:08;;;;;;;19.02;2.78;;;6.50;99.90;;;;;;4975658;28;20038;-80
2022/02/07 17:08:35;;;;;;;22.08;2.38;;;5.60;99.90;;;;;;4974581;28;20450;-80
2022/02/07 17:11:04;;;;;;;18.92;2.47;;;5.50;99.90;;;;;;4974965;28;20052;-80
2022/02/07 17:13:32;;;;;;;21.40;2.50;;;5.50;99.90;;;;;;4974152;28;20046;-80
2022/02/07 17:16:03;;;;;;;25.85;2.92;;;5.50;99.90;;;;;;4990090;28;20431;-81
2022/02/07 17:27:25;;;;;;;25.88;2.47;;;5.30;99.90;;;;;;4807857;29;20062;-83
2022/02/07 17:38:18;;;;;;;22.85;3.55;;;5.20;99.90;;;;;;4809943;29;20130;-84
2022/02/07 17:56:57;;;;;;;;;;;;;;;;;;;;;
2022/02/07 18:07:39;;;;;;;;;;;;;;;;;;;;;